Terminal Aerodrome Forecast
Issued by NWS Mt. Holly, NJ

Home | Current Version | Previous Version | Text Only | Print | Product List | Glossary On
Versions: 1 2 3 4 5 6 7 8 9 10 11 12 13 14 15 16 17 18 19 20
798
FTUS41 KPHI 212001 AAA
TAFABE
TAF AMD
KABE 212001Z 2120/2218 23008KT P6SM SCT035
     FM212200 23006KT P6SM BKN035
      TEMPO 2123/2201 4SM -TSRA BKN050CB
     FM220200 21004KT P6SM BKN025
     FM220600 VRB03KT 5SM BR BKN007
     FM221300 19006KT P6SM BKN012
     FM221500 20008KT P6SM SCT015 SCT050 BKN250=

USA.gov is the U.S. government's official web portal to all federal, state and local government web resources and services.